sensor_id;sensor_type;location;lat;lon;timestamp;pressure;altitude;pressure_sealevel;temperature;humidity
39209;BME280;24929;51.982;4.664;2022-09-03T00:02:37;76198.59;;;-143.36;nan
39209;BME280;24929;51.982;4.664;2022-09-03T00:10:41;76204.63;;;-143.36;nan
39209;BME280;24929;51.982;4.664;2022-09-03T00:13:09;76236.72;;;-143.36;nan
39209;BME280;24929;51.982;4.664;2022-09-03T00:15:39;76224.69;;;-143.36;nan
39209;BME280;24929;51.982;4.664;2022-09-03T00:18:13;76216.66;;;-143.36;nan
39209;BME280;24929;51.982;4.664;2022-09-03T00:20:43;76232.72;;;-143.36;nan
39209;BME280;24929;51.982;4.664;2022-09-03T00:23:15;76208.63;;;-143.36;nan
39209;BME280;24929;51.982;4.664;2022-09-03T00:25:59;76200.59;;;-143.36;nan
39209;BME280;24929;51.982;4.664;2022-09-03T00:28:27;76216.66;;;-143.36;nan
39209;BME280;24929;51.982;4.664;2022-09-03T00:31:09;76212.66;;;-143.36;nan
39209;BME280;24929;51.982;4.664;2022-09-03T00:33:41;76230.69;;;-143.36;nan
39209;BME280;24929;51.982;4.664;2022-09-03T00:36:19;76220.66;;;-143.36;nan
39209;BME280;24929;51.982;4.664;2022-09-03T00:38:46;76242.75;;;-143.36;nan
39209;BME280;24929;51.982;4.664;2022-09-03T00:47:38;76218.66;;;-143.36;nan
39209;BME280;24929;51.982;4.664;2022-09-03T00:50:02;76222.69;;;-143.36;nan
39209;BME280;24929;51.982;4.664;2022-09-03T00:55:11;76240.75;;;-143.36;nan
39209;BME280;24929;51.982;4.664;2022-09-03T01:00:10;76242.75;;;-143.36;nan
39209;BME280;24929;51.982;4.664;2022-09-03T01:03:00;76236.72;;;-143.36;nan
39209;BME280;24929;51.982;4.664;2022-09-03T01:17:00;76248.75;;;-143.36;nan
39209;BME280;24929;51.982;4.664;2022-09-03T01:19:56;76248.75;;;-143.36;nan
39209;BME280;24929;51.982;4.664;2022-09-03T01:22:53;76244.75;;;-143.36;nan
39209;BME280;24929;51.982;4.664;2022-09-03T01:28:22;76238.72;;;-143.36;nan
39209;BME280;24929;51.982;4.664;2022-09-03T01:31:36;76242.75;;;-143.36;nan
39209;BME280;24929;51.982;4.664;2022-09-03T01:39:09;76254.78;;;-143.36;nan
39209;BME280;24929;51.982;4.664;2022-09-03T01:42:03;76228.69;;;-143.36;nan
39209;BME280;24929;51.982;4.664;2022-09-03T01:58:48;76224.69;;;-143.36;nan
39209;BME280;24929;51.982;4.664;2022-09-03T02:01:25;76224.69;;;-143.36;nan
39209;BME280;24929;51.982;4.664;2022-09-03T02:03:53;76246.75;;;-143.36;nan
39209;BME280;24929;51.982;4.664;2022-09-03T02:06:20;76252.78;;;-143.36;nan
39209;BME280;24929;51.982;4.664;2022-09-03T02:08:46;76254.78;;;-143.36;nan
39209;BME280;24929;51.982;4.664;2022-09-03T02:11:11;76246.75;;;-143.36;nan
39209;BME280;24929;51.982;4.664;2022-09-03T02:13:40;76236.72;;;-143.36;nan
39209;BME280;24929;51.982;4.664;2022-09-03T02:16:18;76236.72;;;-143.36;nan
39209;BME280;24929;51.982;4.664;2022-09-03T02:18:49;76242.75;;;-143.36;nan
39209;BME280;24929;51.982;4.664;2022-09-03T02:21:17;76232.72;;;-143.36;nan
39209;BME280;24929;51.982;4.664;2022-09-03T02:23:44;76242.75;;;-143.36;nan
39209;BME280;24929;51.982;4.664;2022-09-03T02:26:12;76238.72;;;-143.36;nan
39209;BME280;24929;51.982;4.664;2022-09-03T02:28:38;76262.81;;;-143.36;nan
39209;BME280;24929;51.982;4.664;2022-09-03T02:31:04;76262.81;;;-143.36;nan
39209;BME280;24929;51.982;4.664;2022-09-03T02:33:32;76262.81;;;-143.36;nan
39209;BME280;24929;51.982;4.664;2022-09-03T02:35:59;76286.88;;;-143.36;nan
39209;BME280;24929;51.982;4.664;2022-09-03T02:38:25;76276.84;;;-143.36;nan
39209;BME280;24929;51.982;4.664;2022-09-03T02:40:51;76272.84;;;-143.36;nan
39209;BME280;24929;51.982;4.664;2022-09-03T02:46:01;76280.88;;;-143.36;nan
39209;BME280;24929;51.982;4.664;2022-09-03T02:48:28;76298.94;;;-143.36;nan
39209;BME280;24929;51.982;4.664;2022-09-03T02:50:53;76278.84;;;-143.36;nan
39209;BME280;24929;51.982;4.664;2022-09-03T02:53:19;76264.81;;;-143.36;nan
39209;BME280;24929;51.982;4.664;2022-09-03T02:55:45;76270.84;;;-143.36;nan
39209;BME280;24929;51.982;4.664;2022-09-03T02:58:10;76270.84;;;-143.36;nan
39209;BME280;24929;51.982;4.664;2022-09-03T03:00:36;76284.88;;;-143.36;nan
39209;BME280;24929;51.982;4.664;2022-09-03T03:03:02;76276.84;;;-143.36;nan
39209;BME280;24929;51.982;4.664;2022-09-03T03:05:49;76254.78;;;-143.36;nan
39209;BME280;24929;51.982;4.664;2022-09-03T03:08:15;76274.84;;;-143.36;nan
39209;BME280;24929;51.982;4.664;2022-09-03T03:10:43;76290.91;;;-143.36;nan
39209;BME280;24929;51.982;4.664;2022-09-03T03:13:09;76298.94;;;-143.36;nan
39209;BME280;24929;51.982;4.664;2022-09-03T03:15:35;76323.00;;;-143.36;nan
39209;BME280;24929;51.982;4.664;2022-09-03T03:18:00;76314.97;;;-143.36;nan
39209;BME280;24929;51.982;4.664;2022-09-03T03:20:25;76317.00;;;-143.36;nan
39209;BME280;24929;51.982;4.664;2022-09-03T03:22:51;76312.97;;;-143.36;nan
39209;BME280;24929;51.982;4.664;2022-09-03T03:25:16;76317.00;;;-143.36;nan
39209;BME280;24929;51.982;4.664;2022-09-03T03:27:41;76325.00;;;-143.36;nan
39209;BME280;24929;51.982;4.664;2022-09-03T03:30:08;76323.00;;;-143.36;nan
39209;BME280;24929;51.982;4.664;2022-09-03T03:32:35;76325.00;;;-143.36;nan
39209;BME280;24929;51.982;4.664;2022-09-03T03:35:01;76329.03;;;-143.36;nan
39209;BME280;24929;51.982;4.664;2022-09-03T03:37:26;76331.03;;;-143.36;nan
39209;BME280;24929;51.982;4.664;2022-09-03T03:39:52;76331.03;;;-143.36;nan
39209;BME280;24929;51.982;4.664;2022-09-03T03:42:17;76339.06;;;-143.36;nan
39209;BME280;24929;51.982;4.664;2022-09-03T03:44:42;76353.09;;;-143.36;nan
39209;BME280;24929;51.982;4.664;2022-09-03T03:47:08;76349.09;;;-143.36;nan
39209;BME280;24929;51.982;4.664;2022-09-03T03:49:33;76351.09;;;-143.36;nan
39209;BME280;24929;51.982;4.664;2022-09-03T03:51:59;76351.09;;;-143.36;nan
39209;BME280;24929;51.982;4.664;2022-09-03T03:54:24;76351.09;;;-143.36;nan
39209;BME280;24929;51.982;4.664;2022-09-03T03:56:50;76361.13;;;-143.36;nan
39209;BME280;24929;51.982;4.664;2022-09-03T03:59:15;76357.13;;;-143.36;nan
39209;BME280;24929;51.982;4.664;2022-09-03T04:01:40;76363.13;;;-143.36;nan
39209;BME280;24929;51.982;4.664;2022-09-03T04:04:06;76367.16;;;-143.36;nan
39209;BME280;24929;51.982;4.664;2022-09-03T04:06:31;76367.16;;;-143.36;nan
39209;BME280;24929;51.982;4.664;2022-09-03T04:08:56;76373.16;;;-143.36;nan
39209;BME280;24929;51.982;4.664;2022-09-03T04:11:23;76355.13;;;-143.36;nan
39209;BME280;24929;51.982;4.664;2022-09-03T04:13:49;76367.16;;;-143.36;nan
39209;BME280;24929;51.982;4.664;2022-09-03T04:16:23;76347.09;;;-143.36;nan
39209;BME280;24929;51.982;4.664;2022-09-03T04:18:49;76369.16;;;-143.36;nan
39209;BME280;24929;51.982;4.664;2022-09-03T04:21:20;76357.13;;;-143.36;nan
39209;BME280;24929;51.982;4.664;2022-09-03T04:23:47;76369.16;;;-143.36;nan
39209;BME280;24929;51.982;4.664;2022-09-03T04:26:15;76373.16;;;-143.36;nan
39209;BME280;24929;51.982;4.664;2022-09-03T04:28:41;76385.22;;;-143.36;nan
39209;BME280;24929;51.982;4.664;2022-09-03T04:31:09;76381.19;;;-143.36;nan
39209;BME280;24929;51.982;4.664;2022-09-03T04:33:35;76365.16;;;-143.36;nan
39209;BME280;24929;51.982;4.664;2022-09-03T04:38:42;76367.16;;;-143.36;nan
39209;BME280;24929;51.982;4.664;2022-09-03T04:41:10;76363.13;;;-143.36;nan
39209;BME280;24929;51.982;4.664;2022-09-03T04:43:36;76385.22;;;-143.36;nan
39209;BME280;24929;51.982;4.664;2022-09-03T04:46:04;76377.19;;;-143.36;nan
39209;BME280;24929;51.982;4.664;2022-09-03T04:48:31;76389.22;;;-143.36;nan
39209;BME280;24929;51.982;4.664;2022-09-03T04:51:09;76353.09;;;-143.36;nan
39209;BME280;24929;51.982;4.664;2022-09-03T04:53:40;76371.16;;;-143.36;nan
39209;BME280;24929;51.982;4.664;2022-09-03T04:56:12;76365.16;;;-143.36;nan
39209;BME280;24929;51.982;4.664;2022-09-03T04:58:38;76403.28;;;-143.36;nan
39209;BME280;24929;51.982;4.664;2022-09-03T05:01:11;76373.16;;;-143.36;nan
39209;BME280;24929;51.982;4.664;2022-09-03T05:03:37;76411.31;;;-143.36;nan
39209;BME280;24929;51.982;4.664;2022-09-03T05:06:03;76399.25;;;-143.36;nan
39209;BME280;24929;51.982;4.664;2022-09-03T05:08:30;76405.28;;;-143.36;nan
39209;BME280;24929;51.982;4.664;2022-09-03T05:10:59;76393.25;;;-143.36;nan
39209;BME280;24929;51.982;4.664;2022-09-03T05:13:25;76413.31;;;-143.36;nan
39209;BME280;24929;51.982;4.664;2022-09-03T05:15:50;76421.34;;;-143.36;nan
39209;BME280;24929;51.982;4.664;2022-09-03T05:18:16;76419.31;;;-143.36;nan
39209;BME280;24929;51.982;4.664;2022-09-03T05:20:41;76417.31;;;-143.36;nan
39209;BME280;24929;51.982;4.664;2022-09-03T05:23:07;76411.31;;;-143.36;nan
39209;BME280;24929;51.982;4.664;2022-09-03T05:25:32;76423.34;;;-143.36;nan
39209;BME280;24929;51.982;4.664;2022-09-03T05:27:58;76411.31;;;-143.36;nan
39209;BME280;24929;51.982;4.664;2022-09-03T05:30:24;76413.31;;;-143.36;nan
39209;BME280;24929;51.982;4.664;2022-09-03T05:32:49;76403.28;;;-143.36;nan
39209;BME280;24929;51.982;4.664;2022-09-03T05:35:15;76385.22;;;-143.36;nan
39209;BME280;24929;51.982;4.664;2022-09-03T05:37:40;76331.03;;;-143.36;nan
39209;BME280;24929;51.982;4.664;2022-09-03T05:40:06;76278.84;;;-143.36;nan
39209;BME280;24929;51.982;4.664;2022-09-03T05:42:38;76268.81;;;-143.36;nan
39209;BME280;24929;51.982;4.664;2022-09-03T05:45:08;76238.72;;;-143.36;nan
39209;BME280;24929;51.982;4.664;2022-09-03T05:47:37;76250.78;;;-143.36;nan
39209;BME280;24929;51.982;4.664;2022-09-03T05:50:07;76258.78;;;-143.36;nan
39209;BME280;24929;51.982;4.664;2022-09-03T05:52:34;76272.84;;;-143.36;nan
39209;BME280;24929;51.982;4.664;2022-09-03T05:55:00;76270.84;;;-143.36;nan
39209;BME280;24929;51.982;4.664;2022-09-03T05:57:26;76276.84;;;-143.36;nan
39209;BME280;24929;51.982;4.664;2022-09-03T05:59:51;76292.91;;;-143.36;nan
39209;BME280;24929;51.982;4.664;2022-09-03T06:02:17;76296.91;;;-143.36;nan
39209;BME280;24929;51.982;4.664;2022-09-03T06:04:43;76298.94;;;-143.36;nan
39209;BME280;24929;51.982;4.664;2022-09-03T06:07:08;76304.94;;;-143.36;nan
39209;BME280;24929;51.982;4.664;2022-09-03T06:09:34;76282.88;;;-143.36;nan
39209;BME280;24929;51.982;4.664;2022-09-03T06:11:59;76280.88;;;-143.36;nan
39209;BME280;24929;51.982;4.664;2022-09-03T06:14:24;76274.84;;;-143.36;nan
39209;BME280;24929;51.982;4.664;2022-09-03T06:16:50;76276.84;;;-143.36;nan
39209;BME280;24929;51.982;4.664;2022-09-03T06:19:17;76280.88;;;-143.36;nan
39209;BME280;24929;51.982;4.664;2022-09-03T06:21:43;76254.78;;;-143.36;nan
39209;BME280;24929;51.982;4.664;2022-09-03T06:24:11;76248.75;;;-143.36;nan
39209;BME280;24929;51.982;4.664;2022-09-03T06:26:37;76254.78;;;-143.36;nan
39209;BME280;24929;51.982;4.664;2022-09-03T06:29:03;76268.81;;;-143.36;nan
39209;BME280;24929;51.982;4.664;2022-09-03T06:31:28;76270.84;;;-143.36;nan
39209;BME280;24929;51.982;4.664;2022-09-03T06:33:54;76262.81;;;-143.36;nan
39209;BME280;24929;51.982;4.664;2022-09-03T06:36:21;76234.72;;;-143.36;nan
39209;BME280;24929;51.982;4.664;2022-09-03T06:38:50;76226.69;;;-143.36;nan
39209;BME280;24929;51.982;4.664;2022-09-03T06:41:18;76214.66;;;-143.36;nan
39209;BME280;24929;51.982;4.664;2022-09-03T06:43:45;76228.69;;;-143.36;nan
39209;BME280;24929;51.982;4.664;2022-09-03T06:46:13;76222.69;;;-143.36;nan
39209;BME280;24929;51.982;4.664;2022-09-03T06:48:39;76214.66;;;-143.36;nan
39209;BME280;24929;51.982;4.664;2022-09-03T06:51:07;76198.59;;;-143.36;nan
39209;BME280;24929;51.982;4.664;2022-09-03T06:53:35;76186.56;;;-143.36;nan
39209;BME280;24929;51.982;4.664;2022-09-03T06:56:03;76170.50;;;-143.36;nan
39209;BME280;24929;51.982;4.664;2022-09-03T06:58:31;76128.38;;;-143.36;nan
39209;BME280;24929;51.982;4.664;2022-09-03T07:01:03;76074.19;;;-143.36;nan
39209;BME280;24929;51.982;4.664;2022-09-03T07:03:31;75999.94;;;-143.36;nan
39209;BME280;24929;51.982;4.664;2022-09-03T07:06:17;75879.56;;;-143.36;nan
39209;BME280;24929;51.982;4.664;2022-09-03T07:08:43;75865.53;;;-143.36;nan
39209;BME280;24929;51.982;4.664;2022-09-03T07:11:12;75793.28;;;-143.36;nan
39209;BME280;24929;51.982;4.664;2022-09-03T07:13:40;75787.28;;;-143.36;nan
39209;BME280;24929;51.982;4.664;2022-09-03T07:16:14;75733.09;;;-143.36;nan
39209;BME280;24929;51.982;4.664;2022-09-03T07:18:40;75713.03;;;-143.36;nan
39209;BME280;24929;51.982;4.664;2022-09-03T07:21:10;75654.84;;;-143.36;nan
39209;BME280;24929;51.982;4.664;2022-09-03T07:23:37;75652.84;;;-143.36;nan
39209;BME280;24929;51.982;4.664;2022-09-03T07:26:08;75626.78;;;-143.36;nan
39209;BME280;24929;51.982;4.664;2022-09-03T07:28:38;75610.72;;;-143.36;nan
39209;BME280;24929;51.982;4.664;2022-09-03T07:31:08;75580.63;;;-143.36;nan
39209;BME280;24929;51.982;4.664;2022-09-03T07:33:35;75598.69;;;-143.36;nan
39209;BME280;24929;51.982;4.664;2022-09-03T07:36:07;75570.59;;;-143.36;nan
39209;BME280;24929;51.982;4.664;2022-09-03T07:38:33;75580.63;;;-143.36;nan
39209;BME280;24929;51.982;4.664;2022-09-03T07:41:00;75564.56;;;-143.36;nan
39209;BME280;24929;51.982;4.664;2022-09-03T07:43:27;75570.59;;;-143.36;nan
39209;BME280;24929;51.982;4.664;2022-09-03T07:45:53;75596.69;;;-143.36;nan
39209;BME280;24929;51.982;4.664;2022-09-03T07:48:20;75624.75;;;-143.36;nan
39209;BME280;24929;51.982;4.664;2022-09-03T07:50:45;75618.75;;;-143.36;nan
39209;BME280;24929;51.982;4.664;2022-09-03T07:53:12;75590.66;;;-143.36;nan
39209;BME280;24929;51.982;4.664;2022-09-03T07:55:37;75544.50;;;-143.36;nan
39209;BME280;24929;51.982;4.664;2022-09-03T07:58:02;75506.41;;;-143.36;nan
39209;BME280;24929;51.982;4.664;2022-09-03T08:00:28;75520.44;;;-143.36;nan
39209;BME280;24929;51.982;4.664;2022-09-03T08:02:53;75534.47;;;-143.36;nan
39209;BME280;24929;51.982;4.664;2022-09-03T08:05:20;75532.47;;;-143.36;nan
39209;BME280;24929;51.982;4.664;2022-09-03T08:07:46;75486.34;;;-143.36;nan
39209;BME280;24929;51.982;4.664;2022-09-03T08:10:13;75462.25;;;-143.36;nan
39209;BME280;24929;51.982;4.664;2022-09-03T08:12:38;75476.31;;;-143.36;nan
39209;BME280;24929;51.982;4.664;2022-09-03T08:15:04;75490.34;;;-143.36;nan
39209;BME280;24929;51.982;4.664;2022-09-03T08:27:46;75692.97;;;-143.36;nan
39209;BME280;24929;51.982;4.664;2022-09-03T08:30:11;75719.06;;;-143.36;nan
39209;BME280;24929;51.982;4.664;2022-09-03T08:32:37;75694.97;;;-143.36;nan
39209;BME280;24929;51.982;4.664;2022-09-03T08:35:05;75638.81;;;-143.36;nan
39209;BME280;24929;51.982;4.664;2022-09-03T08:37:30;75646.84;;;-143.36;nan
39209;BME280;24929;51.982;4.664;2022-09-03T08:39:57;75624.75;;;-143.36;nan
39209;BME280;24929;51.982;4.664;2022-09-03T08:44:59;75592.66;;;-143.36;nan
39209;BME280;24929;51.982;4.664;2022-09-03T08:52:45;75514.41;;;-143.36;nan
39209;BME280;24929;51.982;4.664;2022-09-03T08:55:26;75508.41;;;-143.36;nan
39209;BME280;24929;51.982;4.664;2022-09-03T09:00:24;75528.47;;;-143.36;nan
39209;BME280;24929;51.982;4.664;2022-09-03T09:05:48;75482.31;;;-143.36;nan
39209;BME280;24929;51.982;4.664;2022-09-03T09:08:27;75458.25;;;-143.36;nan
39209;BME280;24929;51.982;4.664;2022-09-03T09:11:17;75464.25;;;-143.36;nan
39209;BME280;24929;51.982;4.664;2022-09-03T09:16:26;75434.19;;;-143.36;nan
39209;BME280;24929;51.982;4.664;2022-09-03T09:21:56;75438.19;;;-143.36;nan
39209;BME280;24929;51.982;4.664;2022-09-03T09:24:34;75462.25;;;-143.36;nan
39209;BME280;24929;51.982;4.664;2022-09-03T09:27:04;75460.25;;;-143.36;nan
39209;BME280;24929;51.982;4.664;2022-09-03T09:29:39;75414.09;;;-143.36;nan
39209;BME280;24929;51.982;4.664;2022-09-03T09:32:08;75410.09;;;-143.36;nan
39209;BME280;24929;51.982;4.664;2022-09-03T09:34:35;75392.03;;;-143.36;nan
39209;BME280;24929;51.982;4.664;2022-09-03T09:37:05;75380.00;;;-143.36;nan
39209;BME280;24929;51.982;4.664;2022-09-03T09:39:31;75412.09;;;-143.36;nan
39209;BME280;24929;51.982;4.664;2022-09-03T09:42:04;75388.03;;;-143.36;nan
39209;BME280;24929;51.982;4.664;2022-09-03T09:44:41;75380.00;;;-143.36;nan
39209;BME280;24929;51.982;4.664;2022-09-03T09:47:12;75422.13;;;-143.36;nan
39209;BME280;24929;51.982;4.664;2022-09-03T09:52:15;75388.03;;;-143.36;nan
39209;BME280;24929;51.982;4.664;2022-09-03T09:54:42;75351.91;;;-143.36;nan
39209;BME280;24929;51.982;4.664;2022-09-03T09:57:21;75337.88;;;-143.36;nan
39209;BME280;24929;51.982;4.664;2022-09-03T09:59:47;75367.97;;;-143.36;nan
39209;BME280;24929;51.982;4.664;2022-09-03T10:02:18;75349.91;;;-143.36;nan
39209;BME280;24929;51.982;4.664;2022-09-03T10:04:44;75333.88;;;-143.36;nan
39209;BME280;24929;51.982;4.664;2022-09-03T10:07:30;75269.66;;;-143.36;nan
39209;BME280;24929;51.982;4.664;2022-09-03T10:10:15;75257.63;;;-143.36;nan
39209;BME280;24929;51.982;4.664;2022-09-03T10:12:46;75247.59;;;-143.36;nan
39209;BME280;24929;51.982;4.664;2022-09-03T10:15:18;75203.47;;;-143.36;nan
39209;BME280;24929;51.982;4.664;2022-09-03T10:18:10;75171.38;;;-143.36;nan
39209;BME280;24929;51.982;4.664;2022-09-03T10:23:19;75147.31;;;-143.36;nan
39209;BME280;24929;51.982;4.664;2022-09-03T10:28:20;75143.28;;;-143.36;nan
39209;BME280;24929;51.982;4.664;2022-09-03T10:30:59;75081.09;;;-143.36;nan
39209;BME280;24929;51.982;4.664;2022-09-03T10:33:34;75111.19;;;-143.36;nan
39209;BME280;24929;51.982;4.664;2022-09-03T10:36:21;75127.25;;;-143.36;nan
39209;BME280;24929;51.982;4.664;2022-09-03T10:38:53;75157.31;;;-143.36;nan
39209;BME280;24929;51.982;4.664;2022-09-03T10:49:23;75133.25;;;-143.36;nan
39209;BME280;24929;51.982;4.664;2022-09-03T10:52:46;75083.09;;;-143.36;nan
39209;BME280;24929;51.982;4.664;2022-09-03T11:00:12;75026.94;;;-143.36;nan
39209;BME280;24929;51.982;4.664;2022-09-03T11:06:10;75000.88;;;-143.36;nan
39209;BME280;24929;51.982;4.664;2022-09-03T11:08:45;75043.00;;;-143.36;nan
39209;BME280;24929;51.982;4.664;2022-09-03T11:11:19;75012.91;;;-143.36;nan
39209;BME280;24929;51.982;4.664;2022-09-03T11:13:50;75002.88;;;-143.36;nan
39209;BME280;24929;51.982;4.664;2022-09-03T11:16:31;74938.69;;;-143.36;nan
39209;BME280;24929;51.982;4.664;2022-09-03T11:19:06;74900.56;;;-143.36;nan
39209;BME280;24929;51.982;4.664;2022-09-03T11:21:36;74920.63;;;-143.36;nan
39209;BME280;24929;51.982;4.664;2022-09-03T11:24:11;74944.69;;;-143.36;nan
39209;BME280;24929;51.982;4.664;2022-09-03T11:26:40;74966.75;;;-143.36;nan
39209;BME280;24929;51.982;4.664;2022-09-03T11:31:54;74960.75;;;-143.36;nan
39209;BME280;24929;51.982;4.664;2022-09-03T11:36:50;74916.63;;;-143.36;nan
39209;BME280;24929;51.982;4.664;2022-09-03T11:39:34;74920.63;;;-143.36;nan
39209;BME280;24929;51.982;4.664;2022-09-03T11:42:26;74882.50;;;-143.36;nan
39209;BME280;24929;51.982;4.664;2022-09-03T11:44:59;74876.50;;;-143.36;nan
